createdAt,value
2023-04-16T00:00:49.758Z,50.852772
2023-04-16T00:01:49.759Z,50.852798
2023-04-16T00:02:49.976Z,50.852776
2023-04-16T00:03:49.969Z,50.852753
2023-04-16T00:04:49.788Z,50.852776
2023-04-16T00:05:49.738Z,50.852818
2023-04-16T00:06:49.749Z,50.852783
2023-04-16T00:07:49.738Z,50.852779
2023-04-16T00:08:49.714Z,50.852772
2023-04-16T00:09:49.689Z,50.852734
2023-04-16T00:10:49.704Z,50.852749
2023-04-16T00:11:49.810Z,50.852772
2023-04-16T00:12:49.695Z,50.852768
2023-04-16T00:13:49.676Z,50.852768
2023-04-16T00:14:49.717Z,50.852737
2023-04-16T00:15:49.683Z,50.852760
2023-04-16T00:16:49.690Z,50.852745
2023-04-16T00:17:49.682Z,50.852772
2023-04-16T00:18:49.660Z,50.852798
2023-04-16T00:19:49.638Z,50.852825
2023-04-16T00:20:49.656Z,50.852833
2023-04-16T00:21:49.617Z,50.852779
2023-04-16T00:22:49.651Z,50.852764
2023-04-16T00:23:49.649Z,50.852783
2023-04-16T00:24:49.624Z,50.852798
2023-04-16T00:25:49.593Z,50.852791
2023-04-16T00:26:49.590Z,50.852779
2023-04-16T00:27:49.576Z,50.852791
2023-04-16T00:28:49.610Z,50.852833
2023-04-16T00:29:49.588Z,50.852844
2023-04-16T00:30:49.632Z,50.852764
2023-04-16T00:31:49.554Z,50.852776
2023-04-16T00:32:49.587Z,50.852791
2023-04-16T00:33:49.541Z,50.852779
2023-04-16T00:34:49.557Z,50.852810
2023-04-16T00:35:49.570Z,50.852768
2023-04-16T00:36:49.563Z,50.852779
2023-04-16T00:37:49.521Z,50.852787
2023-04-16T00:38:49.571Z,50.852856
2023-04-16T00:39:49.511Z,50.852856
2023-04-16T00:40:49.536Z,50.852856
2023-04-16T00:41:49.496Z,50.852818
2023-04-16T00:42:49.508Z,50.852798
2023-04-16T00:43:49.502Z,50.852791
2023-04-16T00:44:49.507Z,50.852768
2023-04-16T00:45:49.527Z,50.852806
2023-04-16T00:46:49.524Z,50.852764
2023-04-16T00:47:49.527Z,50.852795
2023-04-16T00:48:49.518Z,50.852791
2023-04-16T00:49:49.473Z,50.852779
2023-04-16T00:50:49.466Z,50.852734
2023-04-16T00:51:49.470Z,50.852768
2023-04-16T00:52:49.459Z,50.852776
2023-04-16T00:53:49.430Z,50.852783
2023-04-16T00:54:49.464Z,50.852798
2023-04-16T00:55:49.437Z,50.852806
2023-04-16T00:56:49.471Z,50.852715
2023-04-16T00:57:49.410Z,50.852749
2023-04-16T00:58:49.421Z,50.852673
2023-04-16T00:59:49.422Z,50.852707
2023-04-16T01:00:49.435Z,50.852688
2023-04-16T01:01:49.577Z,50.852703
2023-04-16T01:02:49.482Z,50.852757
2023-04-16T01:03:49.442Z,50.852779
2023-04-16T01:04:49.392Z,50.852673
2023-04-16T01:05:49.423Z,50.852726
2023-04-16T01:06:49.391Z,50.852722
2023-04-16T01:07:49.381Z,50.852753
2023-04-16T01:08:49.386Z,50.852764
2023-04-16T01:09:49.351Z,50.852757
2023-04-16T01:10:49.369Z,50.852779
2023-04-16T01:11:49.347Z,50.852795
2023-04-16T01:12:49.373Z,50.852848
2023-04-16T01:13:49.357Z,50.852867
2023-04-16T01:14:49.346Z,50.852791
2023-04-16T01:15:49.352Z,50.852760
2023-04-16T01:16:49.338Z,50.852749
2023-04-16T01:17:49.349Z,50.852757
2023-04-16T01:18:49.351Z,50.852753
2023-04-16T01:19:49.296Z,50.852753
2023-04-16T01:20:49.339Z,50.852764
2023-04-16T01:21:49.279Z,50.852776
2023-04-16T01:22:49.326Z,50.852791
2023-04-16T01:23:49.267Z,50.852764
2023-04-16T01:24:49.292Z,50.852787
2023-04-16T01:25:49.295Z,50.852757
2023-04-16T01:26:49.297Z,50.852734
2023-04-16T01:27:49.256Z,50.852753
2023-04-16T01:28:49.315Z,50.852760
2023-04-16T01:29:49.242Z,50.852795
2023-04-16T01:30:49.269Z,50.852787
2023-04-16T01:31:49.358Z,50.852802
2023-04-16T01:32:49.299Z,50.852802
2023-04-16T01:33:49.216Z,50.852848
2023-04-16T01:34:49.255Z,50.852844
2023-04-16T01:35:49.216Z,50.852879
2023-04-16T01:36:49.220Z,50.852837
2023-04-16T01:37:49.192Z,50.852837
2023-04-16T01:38:49.216Z,50.852837
2023-04-16T01:39:49.193Z,50.852852
2023-04-16T01:40:49.233Z,50.852867
2023-04-16T01:41:49.171Z,50.852882
2023-04-16T01:42:49.186Z,50.852833
2023-04-16T01:43:49.179Z,50.852814
2023-04-16T01:44:49.176Z,50.852821
2023-04-16T01:45:49.163Z,50.852802
2023-04-16T01:46:49.216Z,50.852787
2023-04-16T01:47:49.187Z,50.852871
2023-04-16T01:48:49.161Z,50.852875
2023-04-16T01:49:49.141Z,50.852871
2023-04-16T01:50:49.138Z,50.852875
2023-04-16T01:51:49.139Z,50.852863
2023-04-16T01:52:49.132Z,50.852867
2023-04-16T01:53:49.144Z,50.852867
2023-04-16T01:54:49.123Z,50.852825
2023-04-16T01:55:49.092Z,50.852829
2023-04-16T01:56:49.099Z,50.852825
2023-04-16T01:57:49.099Z,50.852833
2023-04-16T01:58:49.098Z,50.852844
2023-04-16T01:59:49.079Z,50.852840
2023-04-16T02:00:49.148Z,50.852825
2023-04-16T02:01:49.148Z,50.852821
2023-04-16T02:02:49.264Z,50.852810
2023-04-16T02:03:49.306Z,50.852825
2023-04-16T02:04:49.053Z,50.852837
2023-04-16T02:05:49.059Z,50.852810
2023-04-16T02:06:49.058Z,50.852814
2023-04-16T02:07:49.029Z,50.852791
2023-04-16T02:08:49.057Z,50.852798
2023-04-16T02:09:49.049Z,50.852787
2023-04-16T02:10:49.025Z,50.852818
2023-04-16T02:11:48.996Z,50.852814
2023-04-16T02:12:49.008Z,50.852814
2023-04-16T02:13:48.990Z,50.852833
2023-04-16T02:14:49.013Z,50.852833
2023-04-16T02:15:48.977Z,50.852840
2023-04-16T02:16:49.106Z,50.852863
2023-04-16T02:17:49.006Z,50.852867
2023-04-16T02:18:48.968Z,50.852867
2023-04-16T02:19:48.968Z,50.852863
2023-04-16T02:20:48.956Z,50.852856
2023-04-16T02:21:48.926Z,50.852848
2023-04-16T02:22:48.960Z,50.852852
2023-04-16T02:23:48.924Z,50.852863
2023-04-16T02:24:48.986Z,50.852829
2023-04-16T02:25:48.926Z,50.852833
2023-04-16T02:26:48.947Z,50.852844
2023-04-16T02:27:48.912Z,50.852871
2023-04-16T02:28:48.920Z,50.852844
2023-04-16T02:29:48.882Z,50.852871
2023-04-16T02:30:48.941Z,50.852833
2023-04-16T02:31:48.961Z,50.852833
2023-04-16T02:32:48.915Z,50.852852
2023-04-16T02:33:48.877Z,50.852848
2023-04-16T02:34:48.885Z,50.852833
2023-04-16T02:35:48.854Z,50.852848
2023-04-16T02:36:48.904Z,50.852837
2023-04-16T02:37:48.865Z,50.852852
2023-04-16T02:38:48.864Z,50.852867
2023-04-16T02:39:48.861Z,50.852859
2023-04-16T02:40:48.850Z,50.852856
2023-04-16T02:41:48.849Z,50.852875
2023-04-16T02:42:48.847Z,50.852863
2023-04-16T02:43:48.864Z,50.852852
2023-04-16T02:44:48.856Z,50.852859
2023-04-16T02:45:48.817Z,50.852863
2023-04-16T02:46:48.853Z,50.852852
2023-04-16T02:47:48.854Z,50.852856
2023-04-16T02:48:48.817Z,50.852856
2023-04-16T02:49:48.771Z,50.852856
2023-04-16T02:50:48.791Z,50.852859
2023-04-16T02:51:48.772Z,50.852833
2023-04-16T02:52:48.789Z,50.852829
2023-04-16T02:53:48.789Z,50.852829
2023-04-16T02:54:48.761Z,50.852821
2023-04-16T02:55:48.735Z,50.852844
2023-04-16T02:56:48.764Z,50.852825
2023-04-16T02:57:48.729Z,50.852840
2023-04-16T02:58:48.773Z,50.852833
2023-04-16T02:59:48.770Z,50.852909
2023-04-16T03:00:48.756Z,50.852859
2023-04-16T03:01:48.820Z,50.852890
2023-04-16T03:02:48.958Z,50.852863
2023-04-16T03:03:48.758Z,50.852848
2023-04-16T03:04:48.720Z,50.852863
2023-04-16T03:05:48.688Z,50.852840
2023-04-16T03:06:48.723Z,50.852833
2023-04-16T03:07:48.679Z,50.852852
2023-04-16T03:08:48.706Z,50.852833
2023-04-16T03:09:48.655Z,50.852852
2023-04-16T03:10:48.708Z,50.852848
2023-04-16T03:11:48.661Z,50.852859
2023-04-16T03:12:48.665Z,50.852852
2023-04-16T03:13:48.663Z,50.852829
2023-04-16T03:14:48.671Z,50.852825
2023-04-16T03:15:48.662Z,50.852848
2023-04-16T03:16:48.637Z,50.852833
2023-04-16T03:17:48.706Z,50.852829
2023-04-16T03:18:48.653Z,50.852837
2023-04-16T03:19:48.614Z,50.852825
2023-04-16T03:20:48.643Z,50.852802
2023-04-16T03:21:48.622Z,50.852821
2023-04-16T03:22:48.627Z,50.852783
2023-04-16T03:23:48.586Z,50.852806
2023-04-16T03:24:48.600Z,50.852810
2023-04-16T03:25:48.622Z,50.852821
2023-04-16T03:26:48.605Z,50.852829
2023-04-16T03:27:48.585Z,50.852844
2023-04-16T03:28:48.591Z,50.852825
2023-04-16T03:29:48.557Z,50.852821
2023-04-16T03:30:48.595Z,50.852814
2023-04-16T03:31:48.552Z,50.852825
2023-04-16T03:32:48.597Z,50.852837
2023-04-16T03:33:48.536Z,50.852829
2023-04-16T03:34:48.558Z,50.852825
2023-04-16T03:35:48.523Z,50.852810
2023-04-16T03:36:48.570Z,50.852818
2023-04-16T03:37:48.520Z,50.852821
2023-04-16T03:38:48.523Z,50.852818
2023-04-16T03:39:48.524Z,50.852814
2023-04-16T03:40:48.519Z,50.852810
2023-04-16T03:41:48.496Z,50.852814
2023-04-16T03:42:48.497Z,50.852821
2023-04-16T03:43:48.481Z,50.852810
2023-04-16T03:44:48.494Z,50.852825
2023-04-16T03:45:48.491Z,50.852814
2023-04-16T03:46:48.511Z,50.852825
2023-04-16T03:47:48.494Z,50.852821
2023-04-16T03:48:48.476Z,50.852802
2023-04-16T03:49:48.447Z,50.852787
2023-04-16T03:50:48.478Z,50.852787
2023-04-16T03:51:48.449Z,50.852802
2023-04-16T03:52:48.455Z,50.852806
2023-04-16T03:53:48.455Z,50.852814
2023-04-16T03:54:48.456Z,50.852806
2023-04-16T03:55:48.431Z,50.852802
2023-04-16T03:56:48.468Z,50.852814
2023-04-16T03:57:48.416Z,50.852798
2023-04-16T03:58:48.462Z,50.852844
2023-04-16T03:59:48.412Z,50.852806
2023-04-16T04:00:48.437Z,50.852810
2023-04-16T04:01:48.429Z,50.852802
2023-04-16T04:02:48.606Z,50.852795
2023-04-16T04:03:48.515Z,50.852814
2023-04-16T04:04:48.528Z,50.852821
2023-04-16T04:05:48.379Z,50.852795
2023-04-16T04:06:48.392Z,50.852791
2023-04-16T04:07:48.357Z,50.852795
2023-04-16T04:08:48.368Z,50.852787
2023-04-16T04:09:48.345Z,50.852821
2023-04-16T04:10:48.393Z,50.852806
2023-04-16T04:11:48.349Z,50.852806
2023-04-16T04:12:48.347Z,50.852802
2023-04-16T04:13:48.346Z,50.852806
2023-04-16T04:14:48.335Z,50.852798
2023-04-16T04:15:48.319Z,50.852810
2023-04-16T04:16:48.497Z,50.852802
2023-04-16T04:17:48.378Z,50.852795
2023-04-16T04:18:48.311Z,50.852798
2023-04-16T04:20:00.492Z,50.852798
2023-04-16T04:20:49.305Z,50.852810
2023-04-16T04:21:48.293Z,50.852802
2023-04-16T04:22:48.293Z,50.852795
2023-04-16T04:23:48.267Z,50.852802
2023-04-16T04:24:48.272Z,50.852798
2023-04-16T04:25:48.328Z,50.852814
2023-04-16T04:26:48.261Z,50.852806
2023-04-16T04:27:48.255Z,50.852810
2023-04-16T04:28:48.246Z,50.852791
2023-04-16T04:29:48.235Z,50.852798
2023-04-16T04:30:48.250Z,50.852791
2023-04-16T04:31:48.238Z,50.852779
2023-04-16T04:32:48.342Z,50.852798
2023-04-16T04:33:48.197Z,50.852783
2023-04-16T04:34:48.230Z,50.852772
2023-04-16T04:35:48.194Z,50.852783
2023-04-16T04:36:48.209Z,50.852795
2023-04-16T04:37:48.174Z,50.852791
2023-04-16T04:38:48.188Z,50.852791
2023-04-16T04:39:48.159Z,50.852791
2023-04-16T04:40:48.196Z,50.852779
2023-04-16T04:41:48.156Z,50.852787
2023-04-16T04:42:48.181Z,50.852818
2023-04-16T04:43:48.185Z,50.852798
2023-04-16T04:44:48.176Z,50.852802
2023-04-16T04:45:48.144Z,50.852776
2023-04-16T04:46:48.141Z,50.852772
2023-04-16T04:47:48.157Z,50.852798
2023-04-16T04:48:48.130Z,50.852787
2023-04-16T04:49:48.126Z,50.852776
2023-04-16T04:50:48.132Z,50.852795
2023-04-16T04:51:48.118Z,50.852779
2023-04-16T04:52:48.120Z,50.852787
2023-04-16T04:53:48.120Z,50.852802
2023-04-16T04:54:48.120Z,50.852787
2023-04-16T04:55:50.924Z,50.852791
2023-04-16T04:56:48.089Z,50.852768
2023-04-16T04:57:48.066Z,50.852772
2023-04-16T04:58:48.074Z,50.852795
2023-04-16T04:59:48.057Z,50.852772
2023-04-16T05:00:48.108Z,50.852722
2023-04-16T05:01:48.077Z,50.852798
2023-04-16T05:02:48.218Z,50.852783
2023-04-16T05:03:48.110Z,50.852768
2023-04-16T05:04:48.092Z,50.852791
2023-04-16T05:05:48.024Z,50.852787
2023-04-16T05:06:48.054Z,50.852810
2023-04-16T05:07:48.012Z,50.852779
2023-04-16T05:08:48.021Z,50.852768
2023-04-16T05:09:48.002Z,50.852745
2023-04-16T05:10:48.035Z,50.852776
2023-04-16T05:11:47.995Z,50.852745
2023-04-16T05:12:49.042Z,50.852741
2023-04-16T05:13:48.000Z,50.852726
2023-04-16T05:14:48.008Z,50.852715
2023-04-16T05:15:47.983Z,50.852757
2023-04-16T05:16:48.011Z,50.852768
2023-04-16T05:17:48.020Z,50.852737
2023-04-16T05:18:47.983Z,50.852791
2023-04-16T05:19:47.952Z,50.852760
2023-04-16T05:20:47.971Z,50.852772
2023-04-16T05:21:47.935Z,50.852776
2023-04-16T05:22:47.969Z,50.852772
2023-04-16T05:23:47.942Z,50.852772
2023-04-16T05:24:47.944Z,50.852791
2023-04-16T05:25:47.917Z,50.852806
2023-04-16T05:26:47.953Z,50.852791
2023-04-16T05:27:47.903Z,50.852768
2023-04-16T05:28:47.929Z,50.852779
2023-04-16T05:29:47.901Z,50.852757
2023-04-16T05:30:47.950Z,50.852772
2023-04-16T05:31:47.884Z,50.852734
2023-04-16T05:32:47.944Z,50.852734
2023-04-16T05:33:47.873Z,50.852745
2023-04-16T05:34:47.882Z,50.852745
2023-04-16T05:35:47.881Z,50.852749
2023-04-16T05:36:47.875Z,50.852745
2023-04-16T05:37:47.866Z,50.852753
2023-04-16T05:38:47.861Z,50.852745
2023-04-16T05:39:47.858Z,50.852753
2023-04-16T05:40:47.848Z,50.852745
2023-04-16T05:41:47.847Z,50.852745
2023-04-16T05:42:47.846Z,50.852737
2023-04-16T05:43:47.836Z,50.852699
2023-04-16T05:44:47.836Z,50.852730
2023-04-16T05:45:47.830Z,50.852741
2023-04-16T05:46:47.817Z,50.852715
2023-04-16T05:47:47.852Z,50.852734
2023-04-16T05:48:47.830Z,50.852772
2023-04-16T05:49:47.789Z,50.852764
2023-04-16T05:50:47.804Z,50.852787
2023-04-16T05:51:49.128Z,50.852776
2023-04-16T05:52:47.810Z,50.852791
2023-04-16T05:53:47.785Z,50.852749
2023-04-16T05:54:47.794Z,50.852715
2023-04-16T05:55:47.755Z,50.852760
2023-04-16T05:56:47.767Z,50.852776
2023-04-16T05:57:47.742Z,50.852772
2023-04-16T05:58:47.757Z,50.852776
2023-04-16T05:59:47.750Z,50.852772
2023-04-16T06:00:47.746Z,50.852772
2023-04-16T06:01:47.782Z,50.852787
2023-04-16T06:02:47.836Z,50.852776
2023-04-16T06:03:47.771Z,50.852768
2023-04-16T06:04:47.735Z,50.852768
2023-04-16T06:05:47.702Z,50.852776
2023-04-16T06:06:47.724Z,50.852776
2023-04-16T06:07:47.683Z,50.852753
2023-04-16T06:08:47.703Z,50.852772
2023-04-16T06:09:47.689Z,50.852764
2023-04-16T06:10:47.702Z,50.852772
2023-04-16T06:11:47.670Z,50.852779
2023-04-16T06:12:47.677Z,50.852776
2023-04-16T06:13:47.665Z,50.852776
2023-04-16T06:14:47.661Z,50.852753
2023-04-16T06:15:47.651Z,50.852730
2023-04-16T06:16:47.659Z,50.852764
2023-04-16T06:17:47.688Z,50.852745
2023-04-16T06:18:47.643Z,50.852760
2023-04-16T06:19:47.627Z,50.852741
2023-04-16T06:20:47.633Z,50.852753
2023-04-16T06:21:47.615Z,50.852749
2023-04-16T06:22:47.622Z,50.852753
2023-04-16T06:23:47.626Z,50.852753
2023-04-16T06:24:47.607Z,50.852745
2023-04-16T06:25:47.586Z,50.852768
2023-04-16T06:26:47.589Z,50.852745
2023-04-16T06:27:47.576Z,50.852745
2023-04-16T06:28:47.578Z,50.852760
2023-04-16T06:29:47.598Z,50.852760
2023-04-16T06:30:47.568Z,50.852749
2023-04-16T06:31:47.579Z,50.852753
2023-04-16T06:32:47.577Z,50.852722
2023-04-16T06:33:47.540Z,50.852753
2023-04-16T06:34:47.580Z,50.852757
2023-04-16T06:35:47.541Z,50.852730
2023-04-16T06:36:47.545Z,50.852734
2023-04-16T06:37:47.539Z,50.852753
2023-04-16T06:38:47.527Z,50.852764
2023-04-16T06:39:47.503Z,50.852764
2023-04-16T06:40:47.520Z,50.852753
2023-04-16T06:41:47.514Z,50.852737
2023-04-16T06:42:47.526Z,50.852760
2023-04-16T06:43:47.483Z,50.852810
2023-04-16T06:44:47.486Z,50.852741
2023-04-16T06:45:47.473Z,50.852753
2023-04-16T06:46:47.521Z,50.852749
2023-04-16T06:47:47.465Z,50.852776
2023-04-16T06:48:47.471Z,50.852798
2023-04-16T06:49:47.460Z,50.852833
2023-04-16T06:50:47.486Z,50.852795
2023-04-16T06:51:47.460Z,50.852764
2023-04-16T06:52:47.480Z,50.852802
2023-04-16T06:53:47.426Z,50.852779
2023-04-16T06:54:47.467Z,50.852783
2023-04-16T06:55:47.419Z,50.852776
2023-04-16T06:56:47.426Z,50.852779
2023-04-16T06:57:47.411Z,50.852806
2023-04-16T06:58:47.433Z,50.852776
2023-04-16T06:59:47.391Z,50.852787
2023-04-16T07:00:47.492Z,50.852806
2023-04-16T07:01:47.422Z,50.852783
2023-04-16T07:02:47.526Z,50.852810
2023-04-16T07:03:47.644Z,50.852783
2023-04-16T07:04:47.378Z,50.852779
2023-04-16T07:05:47.380Z,50.852779
2023-04-16T07:06:47.374Z,50.852795
2023-04-16T07:07:47.372Z,50.852806
2023-04-16T07:08:47.357Z,50.852787
2023-04-16T07:09:47.365Z,50.852821
2023-04-16T07:10:47.355Z,50.852806
2023-04-16T07:11:47.340Z,50.852768
2023-04-16T07:12:47.354Z,50.852749
2023-04-16T07:13:47.311Z,50.852745
2023-04-16T07:14:47.356Z,50.852787
2023-04-16T07:15:47.312Z,50.852749
2023-04-16T07:16:47.342Z,50.852787
2023-04-16T07:17:47.373Z,50.852760
2023-04-16T07:18:47.312Z,50.852787
2023-04-16T07:19:47.356Z,50.852787
2023-04-16T07:20:47.292Z,50.852776
2023-04-16T07:21:47.275Z,50.852795
2023-04-16T07:22:47.274Z,50.852791
2023-04-16T07:23:47.266Z,50.852783
2023-04-16T07:24:47.287Z,50.852795
2023-04-16T07:25:47.248Z,50.852776
2023-04-16T07:26:47.270Z,50.852798
2023-04-16T07:27:47.279Z,50.852783
2023-04-16T07:28:47.269Z,50.852798
2023-04-16T07:29:47.223Z,50.852802
2023-04-16T07:30:47.252Z,50.852798
2023-04-16T07:31:47.241Z,50.852802
2023-04-16T07:32:47.305Z,50.852802
2023-04-16T07:33:47.201Z,50.852802
2023-04-16T07:34:47.230Z,50.852787
2023-04-16T07:35:47.210Z,50.852802
2023-04-16T07:36:47.205Z,50.852798
2023-04-16T07:37:47.238Z,50.852806
2023-04-16T07:38:47.227Z,50.852791
2023-04-16T07:39:47.186Z,50.852795
2023-04-16T07:40:47.194Z,50.852791
2023-04-16T07:41:47.150Z,50.852806
2023-04-16T07:42:47.204Z,50.852802
2023-04-16T07:43:47.149Z,50.852833
2023-04-16T07:44:47.186Z,50.852818
2023-04-16T07:45:47.170Z,50.852787
2023-04-16T07:46:47.826Z,50.852783
2023-04-16T07:47:47.260Z,50.852810
2023-04-16T07:48:47.137Z,50.852791
2023-04-16T07:49:47.134Z,50.852779
2023-04-16T07:50:47.162Z,50.852791
2023-04-16T07:51:47.106Z,50.852791
2023-04-16T07:52:47.116Z,50.852806
2023-04-16T07:53:47.121Z,50.852753
2023-04-16T07:54:47.111Z,50.852764
2023-04-16T07:55:47.087Z,50.852787
2023-04-16T07:56:47.103Z,50.852798
2023-04-16T07:57:47.076Z,50.852798
2023-04-16T07:58:47.103Z,50.852806
2023-04-16T07:59:47.063Z,50.852814
2023-04-16T08:00:47.492Z,50.852787
2023-04-16T08:01:47.053Z,50.852779
2023-04-16T08:02:47.158Z,50.852806
2023-04-16T08:03:47.305Z,50.852814
2023-04-16T08:04:47.402Z,50.852787
2023-04-16T08:05:47.045Z,50.852795
2023-04-16T08:06:47.044Z,50.852757
2023-04-16T08:07:47.037Z,50.852760
2023-04-16T08:08:47.027Z,50.852768
2023-04-16T08:09:47.039Z,50.852741
2023-04-16T08:10:47.044Z,50.852779
2023-04-16T08:11:47.025Z,50.852795
2023-04-16T08:12:47.015Z,50.852821
2023-04-16T08:13:46.988Z,50.852787
2023-04-16T08:14:47.028Z,50.852776
2023-04-16T08:15:47.005Z,50.852757
2023-04-16T08:16:46.981Z,50.852768
2023-04-16T08:17:47.062Z,50.852737
2023-04-16T08:18:47.002Z,50.852772
2023-04-16T08:19:46.971Z,50.852768
2023-04-16T08:20:46.978Z,50.852764
2023-04-16T08:21:46.948Z,50.852764
2023-04-16T08:22:46.969Z,50.852745
2023-04-16T08:23:46.928Z,50.852715
2023-04-16T08:24:46.961Z,50.852730
2023-04-16T08:25:46.977Z,50.852734
2023-04-16T08:26:46.941Z,50.852737
2023-04-16T08:27:46.927Z,50.852737
2023-04-16T08:28:46.908Z,50.852768
2023-04-16T08:29:46.893Z,50.852776
2023-04-16T08:30:46.904Z,50.852825
2023-04-16T08:31:47.007Z,50.852768
2023-04-16T08:32:49.413Z,50.852787
2023-04-16T08:33:48.951Z,50.852795
2023-04-16T08:34:46.912Z,50.852787
2023-04-16T08:35:46.865Z,50.852791
2023-04-16T08:36:46.883Z,50.852783
2023-04-16T08:37:46.860Z,50.852791
2023-04-16T08:38:46.858Z,50.852840
2023-04-16T08:39:46.864Z,50.852825
2023-04-16T08:40:46.848Z,50.852867
2023-04-16T08:41:46.846Z,50.852818
2023-04-16T08:42:46.857Z,50.852821
2023-04-16T08:43:46.817Z,50.852818
2023-04-16T08:44:48.838Z,50.852757
2023-04-16T08:45:46.804Z,50.852753
2023-04-16T08:46:46.838Z,50.852798
2023-04-16T08:47:46.842Z,50.852844
2023-04-16T08:48:46.815Z,50.852783
2023-04-16T08:49:46.771Z,50.852787
2023-04-16T08:50:46.782Z,50.852798
2023-04-16T08:51:46.805Z,50.852787
2023-04-16T08:52:46.784Z,50.852806
2023-04-16T08:53:46.745Z,50.852760
2023-04-16T08:54:46.763Z,50.852772
2023-04-16T08:55:47.727Z,50.852779
2023-04-16T08:56:46.772Z,50.852795
2023-04-16T08:57:46.731Z,50.852764
2023-04-16T08:58:46.762Z,50.852814
2023-04-16T08:59:46.729Z,50.852806
2023-04-16T09:00:46.761Z,50.852764
2023-04-16T09:01:46.746Z,50.852753
2023-04-16T09:02:46.955Z,50.852753
2023-04-16T09:03:46.855Z,50.852776
2023-04-16T09:04:46.749Z,50.852802
2023-04-16T09:05:46.670Z,50.852795
2023-04-16T09:06:46.720Z,50.852779
2023-04-16T09:07:46.665Z,50.852833
2023-04-16T09:08:46.678Z,50.852802
2023-04-16T09:09:46.695Z,50.852795
2023-04-16T09:10:46.660Z,50.852806
2023-04-16T09:11:46.698Z,50.852806
2023-04-16T09:12:46.662Z,50.852810
2023-04-16T09:13:46.638Z,50.852802
2023-04-16T09:14:46.768Z,50.852791
2023-04-16T09:15:46.606Z,50.852798
2023-04-16T09:16:46.652Z,50.852798
2023-04-16T09:17:46.683Z,50.852795
2023-04-16T09:18:46.633Z,50.852806
2023-04-16T09:19:46.599Z,50.852791
2023-04-16T09:20:46.599Z,50.852802
2023-04-16T09:21:46.583Z,50.852779
2023-04-16T09:22:46.605Z,50.852779
2023-04-16T09:23:46.594Z,50.852791
2023-04-16T09:24:46.571Z,50.852795
2023-04-16T09:25:46.575Z,50.852795
2023-04-16T09:26:46.566Z,50.852776
2023-04-16T09:27:46.542Z,50.852825
2023-04-16T09:28:46.542Z,50.852802
2023-04-16T09:29:46.557Z,50.852791
2023-04-16T09:30:46.558Z,50.852806
2023-04-16T09:31:46.554Z,50.852802
2023-04-16T09:32:46.578Z,50.852760
2023-04-16T09:33:46.511Z,50.852783
2023-04-16T09:34:46.529Z,50.852772
2023-04-16T09:35:46.502Z,50.852798
2023-04-16T09:36:46.512Z,50.852821
2023-04-16T09:37:46.483Z,50.852795
2023-04-16T09:38:46.487Z,50.852791
2023-04-16T09:39:46.483Z,50.852779
2023-04-16T09:40:46.478Z,50.852829
2023-04-16T09:41:46.464Z,50.852833
2023-04-16T09:42:46.482Z,50.852833
2023-04-16T09:43:46.443Z,50.852890
2023-04-16T09:44:46.501Z,50.852818
2023-04-16T09:45:46.475Z,50.852844
2023-04-16T09:46:46.481Z,50.852821
2023-04-16T09:47:46.539Z,50.852844
2023-04-16T09:48:46.453Z,50.852814
2023-04-16T09:49:46.484Z,50.852821
2023-04-16T09:50:46.417Z,50.852806
2023-04-16T09:51:46.395Z,50.852810
2023-04-16T09:52:46.410Z,50.852810
2023-04-16T09:53:46.390Z,50.852818
2023-04-16T09:54:46.391Z,50.852814
2023-04-16T09:55:46.906Z,50.852818
2023-04-16T09:56:46.407Z,50.852814
2023-04-16T09:57:46.363Z,50.852791
2023-04-16T09:58:46.381Z,50.852795
2023-04-16T09:59:46.355Z,50.852818
2023-04-16T10:00:46.396Z,50.852859
2023-04-16T10:01:46.472Z,50.852848
2023-04-16T10:02:48.062Z,50.852814
2023-04-16T10:03:46.408Z,50.852802
2023-04-16T10:04:46.403Z,50.852802
2023-04-16T10:05:46.332Z,50.852798
2023-04-16T10:06:46.348Z,50.852795
2023-04-16T10:07:46.352Z,50.852772
2023-04-16T10:08:48.475Z,50.852768
2023-04-16T10:09:46.340Z,50.852760
2023-04-16T10:10:46.341Z,50.852821
2023-04-16T10:11:46.289Z,50.852810
2023-04-16T10:12:46.310Z,50.852795
2023-04-16T10:13:46.290Z,50.852829
2023-04-16T10:14:48.276Z,50.852829
2023-04-16T10:15:46.297Z,50.852772
2023-04-16T10:16:46.329Z,50.852795
2023-04-16T10:17:46.298Z,50.852776
2023-04-16T10:18:46.274Z,50.852753
2023-04-16T10:19:46.267Z,50.852741
2023-04-16T10:20:46.255Z,50.852715
2023-04-16T10:21:46.253Z,50.852776
2023-04-16T10:22:46.259Z,50.852753
2023-04-16T10:23:46.252Z,50.852821
2023-04-16T10:24:46.240Z,50.852802
2023-04-16T10:25:46.244Z,50.852779
2023-04-16T10:26:46.251Z,50.852810
2023-04-16T10:27:46.195Z,50.852768
2023-04-16T10:28:46.227Z,50.852745
2023-04-16T10:29:46.241Z,50.852779
2023-04-16T10:30:46.272Z,50.852795
2023-04-16T10:31:46.172Z,50.852791
2023-04-16T10:32:46.267Z,50.852810
2023-04-16T10:33:46.204Z,50.852795
2023-04-16T10:34:46.208Z,50.852764
2023-04-16T10:35:52.334Z,50.852787
2023-04-16T10:36:47.179Z,50.852768
2023-04-16T10:37:46.135Z,50.852757
2023-04-16T10:38:46.154Z,50.852776
2023-04-16T10:39:46.136Z,50.852768
2023-04-16T10:40:46.187Z,50.852802
2023-04-16T10:41:46.136Z,50.852806
2023-04-16T10:42:46.117Z,50.852798
2023-04-16T10:43:46.130Z,50.852787
2023-04-16T10:44:46.115Z,50.852833
2023-04-16T10:45:46.141Z,50.852791
2023-04-16T10:46:46.127Z,50.852776
2023-04-16T10:47:46.117Z,50.852837
2023-04-16T10:48:50.316Z,50.852821
2023-04-16T10:49:46.061Z,50.852798
2023-04-16T10:50:46.091Z,50.852840
2023-04-16T10:51:46.109Z,50.852821
2023-04-16T10:52:46.075Z,50.852814
2023-04-16T10:53:46.077Z,50.852810
2023-04-16T10:54:46.041Z,50.852795
2023-04-16T10:55:46.011Z,50.852798
2023-04-16T10:56:46.044Z,50.852779
2023-04-16T10:57:46.004Z,50.852783
2023-04-16T10:58:46.008Z,50.852798
2023-04-16T10:59:46.077Z,50.852798
2023-04-16T11:00:46.003Z,50.852791
2023-04-16T11:01:46.024Z,50.852768
2023-04-16T11:02:46.085Z,50.852776
2023-04-16T11:03:46.130Z,50.852779
2023-04-16T11:04:46.069Z,50.852791
2023-04-16T11:05:45.977Z,50.852821
2023-04-16T11:06:45.956Z,50.852837
2023-04-16T11:07:45.955Z,50.852798
2023-04-16T11:08:53.759Z,50.852768
2023-04-16T11:09:46.968Z,50.852814
2023-04-16T11:10:45.932Z,50.852818
2023-04-16T11:11:45.936Z,50.852779
2023-04-16T11:12:45.917Z,50.852722
2023-04-16T11:13:45.892Z,50.852760
2023-04-16T11:14:45.914Z,50.852745
2023-04-16T11:15:45.935Z,50.852753
2023-04-16T11:16:45.928Z,50.852757
2023-04-16T11:17:45.946Z,50.852776
2023-04-16T11:18:51.530Z,50.852757
2023-04-16T11:19:46.867Z,50.852764
2023-04-16T11:20:45.915Z,50.852757
2023-04-16T11:21:45.840Z,50.852802
2023-04-16T11:22:45.854Z,50.852772
2023-04-16T11:23:45.822Z,50.852749
2023-04-16T11:24:45.827Z,50.852718